Aviation Digital Data Service (ADDS)

Output produced by METARs form (2320 UTC 23 May 2022)
found at http://www.aviationweather.gov/metar/data/
 
TAF FNBG 232255Z 2400/2412 VRB03KT 9000 FEW015 BKN018 
     PROB30 
     TEMPO 2401/2405 5000 BR 
     TEMPO 2406/2410 13006KT 9999 FEW016 
     BECMG 2409/2411 33010KT CAVOK
       
FNCA 231900Z 19004KT 9000 FEW023 25/22 Q1013
TAF FNCA 232255Z 2400/2412 18006KT 9000 BKN015
       
TAF FNDU 232255Z 2400/2412 16006KT 9999 FEW020 SCT025 
     BECMG 2407/2409 VRB03KT 9000
       
TAF FNHU 232255Z 2400/2412 VRB03KT 9000 FEW015
       
TAF FNKU 232255Z 2400/2412 VRB02KT 9000 FEW012
       
FNLU 232300Z 18005KT 9999 SCT020 22/20 Q1015
TAF FNLU 232255Z 2400/2506 19006KT 9000 FEW020 
     TEMPO 2402/2406 13005KT 5000 BR SCT018 BKN025 
     BECMG 2408/2410 9000 FEW016 
     TEMPO 2412/2416 23010KT 9999
       
TAF FNUE 232255Z 2400/2412 13006KT CAVOK
       
TAF FNMA 232255Z 2400/2412 28005KT 9000 BKN008 
     PROB30 
     TEMPO 2402/2406 23006KT 5000 BR 
     TEMPO 2407/2411 12006KT 9999
       
TAF FNME 232255Z 2400/2412 10005KT CAVOK
       
FNMO 231800Z 24012KT CAVOK 18/17 Q1013
TAF FNMO 232255Z 2400/2412 14006KT CAVOK 
     BECMG 2409/2411 24012KT
       
TAF FNGI 232255Z 2400/2412 09006KT CAVOK
       
TAF FNSA 232255Z 2400/2412 14005KT 9999 FEW015
       
TAF FNSO 232255Z 2400/2412 17007KT 9000 BKN010